createdAt,value
2017-08-23T00:02:21.031Z,-90
2017-08-23T00:04:47.410Z,-90
2017-08-23T00:07:13.798Z,-89
2017-08-23T00:09:40.225Z,-90
2017-08-23T00:12:06.632Z,-91
2017-08-23T00:14:33.032Z,-91
2017-08-23T00:16:59.406Z,-91
2017-08-23T00:19:25.847Z,-92
2017-08-23T00:21:52.234Z,-92
2017-08-23T00:24:18.688Z,-92
2017-08-23T00:26:45.087Z,-92
2017-08-23T00:29:11.522Z,-92
2017-08-23T00:31:37.936Z,-92
2017-08-23T00:34:04.341Z,-92
2017-08-23T00:36:30.733Z,-92
2017-08-23T00:38:57.115Z,-92
2017-08-23T00:41:23.525Z,-91
2017-08-23T00:43:49.968Z,-92
2017-08-23T00:46:16.345Z,-92
2017-08-23T00:48:42.762Z,-91
2017-08-23T00:51:09.247Z,-91
2017-08-23T00:53:35.692Z,-92
2017-08-23T00:56:05.218Z,-92
2017-08-23T00:58:31.761Z,-91
2017-08-23T01:00:58.256Z,-91
2017-08-23T01:03:24.645Z,-91
2017-08-23T01:05:50.991Z,-91
2017-08-23T01:08:17.375Z,-91
2017-08-23T01:10:44.257Z,-91
2017-08-23T01:13:10.716Z,-91
2017-08-23T01:15:37.092Z,-92
2017-08-23T01:18:03.497Z,-91
2017-08-23T01:20:29.899Z,-93
2017-08-23T01:22:56.301Z,-93
2017-08-23T01:25:22.714Z,-93
2017-08-23T01:27:49.101Z,-93
2017-08-23T01:30:15.563Z,-93
2017-08-23T01:32:41.939Z,-93
2017-08-23T01:35:08.363Z,-93
2017-08-23T01:37:34.815Z,-93
2017-08-23T01:40:01.217Z,-93
2017-08-23T01:42:27.615Z,-92
2017-08-23T01:44:54.014Z,-91
2017-08-23T01:47:20.405Z,-91
2017-08-23T01:49:46.782Z,-90
2017-08-23T01:52:13.174Z,-91
2017-08-23T01:54:39.556Z,-91
2017-08-23T01:57:06.543Z,-91
2017-08-23T01:59:33.251Z,-92
2017-08-23T02:01:59.636Z,-92
2017-08-23T02:04:26.045Z,-92
2017-08-23T02:06:52.435Z,-91
2017-08-23T02:09:18.830Z,-92
2017-08-23T02:11:48.073Z,-92
2017-08-23T02:14:14.548Z,-92
2017-08-23T02:16:40.954Z,-92
2017-08-23T02:19:07.322Z,-92
2017-08-23T02:21:33.707Z,-92
2017-08-23T02:24:00.128Z,-92
2017-08-23T02:26:27.086Z,-92
2017-08-23T02:28:53.503Z,-92
2017-08-23T02:31:19.888Z,-93
2017-08-23T02:33:46.332Z,-91
2017-08-23T02:36:12.731Z,-92
2017-08-23T02:38:39.091Z,-92
2017-08-23T02:41:05.494Z,-92
2017-08-23T02:43:31.882Z,-92
2017-08-23T02:45:58.269Z,-92
2017-08-23T02:48:24.664Z,-92
2017-08-23T02:50:51.067Z,-92
2017-08-23T02:53:17.469Z,-92
2017-08-23T02:55:43.845Z,-92
2017-08-23T02:58:10.243Z,-92
2017-08-23T03:00:36.618Z,-92
2017-08-23T03:03:03.025Z,-92
2017-08-23T03:05:29.403Z,-92
2017-08-23T03:07:55.771Z,-94
2017-08-23T03:10:22.158Z,-93
2017-08-23T03:12:48.562Z,-93
2017-08-23T03:15:14.953Z,-93
2017-08-23T03:17:41.375Z,-92
2017-08-23T03:20:07.772Z,-92
2017-08-23T03:22:34.156Z,-93
2017-08-23T03:25:00.541Z,-93
2017-08-23T03:27:26.936Z,-92
2017-08-23T03:29:53.300Z,-92
2017-08-23T03:32:20.602Z,-92
2017-08-23T03:34:47.016Z,-93
2017-08-23T03:37:13.412Z,-92
2017-08-23T03:39:39.811Z,-93
2017-08-23T03:42:06.239Z,-93
2017-08-23T03:44:32.622Z,-92
2017-08-23T03:46:59.015Z,-90
2017-08-23T03:49:25.405Z,-88
2017-08-23T03:51:51.816Z,-88
2017-08-23T03:54:18.208Z,-88
2017-08-23T03:56:44.620Z,-88
2017-08-23T03:59:10.986Z,-88
2017-08-23T04:01:37.361Z,-87
2017-08-23T04:04:03.789Z,-88
2017-08-23T04:06:30.147Z,-88
2017-08-23T04:08:56.563Z,-88
2017-08-23T04:11:22.945Z,-88
2017-08-23T04:13:49.331Z,-88
2017-08-23T04:16:15.726Z,-88
2017-08-23T04:18:42.106Z,-88
2017-08-23T04:21:08.521Z,-88
2017-08-23T04:23:34.902Z,-88
2017-08-23T04:26:01.299Z,-88
2017-08-23T04:28:27.662Z,-88
2017-08-23T04:30:54.061Z,-88
2017-08-23T04:33:20.467Z,-88
2017-08-23T04:35:46.841Z,-88
2017-08-23T04:38:13.232Z,-88
2017-08-23T04:40:39.629Z,-88
2017-08-23T04:43:06.027Z,-88
2017-08-23T04:45:32.459Z,-88
2017-08-23T04:47:58.850Z,-88
2017-08-23T04:50:25.270Z,-88
2017-08-23T04:52:51.649Z,-88
2017-08-23T04:55:18.028Z,-89
2017-08-23T04:57:44.406Z,-88
2017-08-23T05:00:10.862Z,-89
2017-08-23T05:02:37.506Z,-88
2017-08-23T05:05:03.892Z,-88
2017-08-23T05:07:30.288Z,-89
2017-08-23T05:09:56.690Z,-90
2017-08-23T05:12:23.088Z,-92
2017-08-23T05:14:49.481Z,-89
2017-08-23T05:17:15.870Z,-89
2017-08-23T05:19:42.300Z,-89
2017-08-23T05:22:08.721Z,-92
2017-08-23T05:24:35.112Z,-92
2017-08-23T05:27:01.475Z,-90
2017-08-23T05:29:30.393Z,-92
2017-08-23T05:31:56.849Z,-93
2017-08-23T05:34:23.255Z,-93
2017-08-23T05:36:49.690Z,-92
2017-08-23T05:39:16.109Z,-91
2017-08-23T05:41:42.532Z,-92
2017-08-23T05:44:08.998Z,-91
2017-08-23T05:46:35.447Z,-92
2017-08-23T05:49:01.822Z,-92
2017-08-23T05:51:28.206Z,-91
2017-08-23T05:53:54.587Z,-93
2017-08-23T05:56:21.042Z,-92
2017-08-23T05:58:47.467Z,-92
2017-08-23T06:01:13.905Z,-93
2017-08-23T06:03:40.328Z,-92
2017-08-23T06:06:06.729Z,-94
2017-08-23T06:08:33.164Z,-90
2017-08-23T06:10:59.549Z,-90
2017-08-23T06:13:25.947Z,-89
2017-08-23T06:15:52.339Z,-90
2017-08-23T06:18:18.733Z,-90
2017-08-23T06:20:45.121Z,-94
2017-08-23T06:23:11.540Z,-94
2017-08-23T06:25:37.987Z,-93
2017-08-23T06:28:04.372Z,-95
2017-08-23T06:30:30.775Z,-93
2017-08-23T06:32:57.204Z,-92
2017-08-23T06:35:23.599Z,-94
2017-08-23T06:37:50.001Z,-94
2017-08-23T06:40:16.413Z,-94
2017-08-23T06:42:42.898Z,-94
2017-08-23T06:45:09.325Z,-93
2017-08-23T06:47:35.734Z,-93
2017-08-23T06:50:02.139Z,-95
2017-08-23T06:52:28.522Z,-96
2017-08-23T06:54:54.939Z,-84
2017-08-23T06:57:21.353Z,-85
2017-08-23T06:59:47.733Z,-84
2017-08-23T07:02:14.113Z,-84
2017-08-23T07:04:40.506Z,-85
2017-08-23T07:07:06.882Z,-86
2017-08-23T07:09:33.270Z,-85
2017-08-23T07:11:59.705Z,-84
2017-08-23T07:14:26.056Z,-83
2017-08-23T07:16:52.612Z,-83
2017-08-23T07:19:19.001Z,-82
2017-08-23T07:21:45.397Z,-83
2017-08-23T07:24:11.791Z,-83
2017-08-23T07:26:38.198Z,-83
2017-08-23T07:29:04.596Z,-82
2017-08-23T07:31:30.963Z,-83
2017-08-23T07:33:57.355Z,-83
2017-08-23T07:36:23.733Z,-84
2017-08-23T07:38:50.107Z,-86
2017-08-23T07:41:16.519Z,-85
2017-08-23T07:43:42.891Z,-85
2017-08-23T07:46:09.312Z,-84
2017-08-23T07:48:35.688Z,-87
2017-08-23T07:51:02.079Z,-87
2017-08-23T07:53:28.458Z,-87
2017-08-23T07:55:54.835Z,-87
2017-08-23T07:58:21.259Z,-86
2017-08-23T08:00:47.640Z,-87
2017-08-23T08:03:14.065Z,-87
2017-08-23T08:05:40.437Z,-87
2017-08-23T08:08:06.845Z,-86
2017-08-23T08:10:33.243Z,-87
2017-08-23T08:12:59.677Z,-87
2017-08-23T08:15:26.085Z,-88
2017-08-23T08:17:52.472Z,-87
2017-08-23T08:20:18.908Z,-86
2017-08-23T08:22:45.275Z,-87
2017-08-23T08:25:11.764Z,-88
2017-08-23T08:27:38.224Z,-88
2017-08-23T08:30:04.712Z,-87
2017-08-23T08:32:31.104Z,-87
2017-08-23T08:34:57.516Z,-87
2017-08-23T08:37:23.925Z,-87
2017-08-23T08:39:50.341Z,-87
2017-08-23T08:42:16.750Z,-87
2017-08-23T08:44:43.179Z,-87
2017-08-23T08:47:09.575Z,-87
2017-08-23T08:49:35.958Z,-87
2017-08-23T08:52:02.383Z,-87
2017-08-23T08:54:28.799Z,-87
2017-08-23T08:56:55.184Z,-87
2017-08-23T08:59:21.573Z,-87
2017-08-23T09:01:47.948Z,-86
2017-08-23T09:04:14.368Z,-87
2017-08-23T09:06:40.740Z,-87
2017-08-23T09:09:07.153Z,-88
2017-08-23T09:11:33.546Z,-87
2017-08-23T09:13:59.934Z,-88
2017-08-23T09:16:26.317Z,-87
2017-08-23T09:18:52.719Z,-88
2017-08-23T09:21:19.129Z,-87
2017-08-23T09:23:45.494Z,-88
2017-08-23T09:26:11.906Z,-87
2017-08-23T09:28:38.300Z,-88
2017-08-23T09:31:04.748Z,-89
2017-08-23T09:33:31.158Z,-90
2017-08-23T09:35:57.560Z,-90
2017-08-23T09:38:23.958Z,-90
2017-08-23T09:40:50.341Z,-90
2017-08-23T09:43:16.765Z,-90
2017-08-23T09:45:43.159Z,-91
2017-08-23T09:48:09.562Z,-90
2017-08-23T09:50:35.985Z,-91
2017-08-23T09:53:02.368Z,-90
2017-08-23T09:55:28.769Z,-90
2017-08-23T09:57:55.202Z,-91
2017-08-23T10:00:21.604Z,-91
2017-08-23T10:02:48.064Z,-91
2017-08-23T10:05:14.435Z,-91
2017-08-23T10:07:40.832Z,-91
2017-08-23T10:10:07.208Z,-91
2017-08-23T10:12:33.579Z,-90
2017-08-23T10:14:59.981Z,-91
2017-08-23T10:17:26.382Z,-92
2017-08-23T10:19:52.761Z,-91
2017-08-23T10:22:19.124Z,-91
2017-08-23T10:24:45.507Z,-91
2017-08-23T10:27:11.893Z,-92
2017-08-23T10:29:38.278Z,-92
2017-08-23T10:32:04.649Z,-91
2017-08-23T10:34:31.039Z,-91
2017-08-23T10:36:57.449Z,-91
2017-08-23T10:39:23.856Z,-90
2017-08-23T10:41:50.245Z,-91
2017-08-23T10:44:16.665Z,-91
2017-08-23T10:46:43.069Z,-91
2017-08-23T10:49:09.469Z,-91
2017-08-23T10:51:35.875Z,-91
2017-08-23T10:54:02.251Z,-91
2017-08-23T10:56:28.669Z,-91
2017-08-23T10:58:55.083Z,-91
2017-08-23T11:01:21.452Z,-91
2017-08-23T11:03:47.826Z,-91
2017-08-23T11:06:14.215Z,-91
2017-08-23T11:08:40.602Z,-91
2017-08-23T11:11:06.991Z,-91
2017-08-23T11:13:33.365Z,-91
2017-08-23T11:15:59.761Z,-90
2017-08-23T11:18:26.138Z,-91
2017-08-23T11:20:53.546Z,-91
2017-08-23T11:23:19.943Z,-90
2017-08-23T11:25:46.419Z,-91
2017-08-23T11:28:12.814Z,-91
2017-08-23T11:30:39.227Z,-91
2017-08-23T11:33:05.751Z,-91
2017-08-23T11:35:32.138Z,-91
2017-08-23T11:37:58.506Z,-91
2017-08-23T11:40:24.942Z,-91
2017-08-23T11:42:51.366Z,-91
2017-08-23T11:45:17.785Z,-91
2017-08-23T11:47:44.189Z,-91
2017-08-23T11:50:10.575Z,-91
2017-08-23T11:52:37.062Z,-92
2017-08-23T11:55:03.479Z,-91
2017-08-23T11:57:29.851Z,-91
2017-08-23T11:59:56.218Z,-91
2017-08-23T12:02:22.614Z,-91
2017-08-23T12:04:49.048Z,-91
2017-08-23T12:07:15.461Z,-92
2017-08-23T12:09:41.853Z,-91
2017-08-23T12:12:08.280Z,-92
2017-08-23T12:14:34.727Z,-90
2017-08-23T12:17:01.150Z,-91
2017-08-23T12:19:27.552Z,-91
2017-08-23T12:21:53.976Z,-91
2017-08-23T12:24:20.359Z,-91
2017-08-23T12:26:46.749Z,-91
2017-08-23T12:29:13.141Z,-93
2017-08-23T12:31:39.524Z,-91
2017-08-23T12:34:05.889Z,-92
2017-08-23T12:36:32.281Z,-91
2017-08-23T12:38:58.687Z,-92
2017-08-23T12:41:25.100Z,-92
2017-08-23T12:43:51.480Z,-92
2017-08-23T12:46:17.878Z,-92
2017-08-23T12:48:44.274Z,-91
2017-08-23T12:51:10.712Z,-92
2017-08-23T12:53:37.142Z,-91
2017-08-23T12:56:03.538Z,-92
2017-08-23T12:58:30.497Z,-92
2017-08-23T13:00:59.266Z,-91
2017-08-23T13:03:25.771Z,-91
2017-08-23T13:05:52.253Z,-92
2017-08-23T13:08:18.655Z,-92
2017-08-23T13:10:45.143Z,-92
2017-08-23T13:13:11.624Z,-92
2017-08-23T13:15:38.312Z,-91
2017-08-23T13:18:04.810Z,-91
2017-08-23T13:20:31.944Z,-88
2017-08-23T13:22:58.364Z,-91
2017-08-23T13:25:24.828Z,-91
2017-08-23T13:27:51.208Z,-91
2017-08-23T13:30:17.616Z,-91
2017-08-23T13:32:44.054Z,-91
2017-08-23T13:35:10.493Z,-91
2017-08-23T13:37:36.911Z,-92
2017-08-23T13:40:03.322Z,-92
2017-08-23T13:42:29.746Z,-93
2017-08-23T13:44:56.133Z,-92
2017-08-23T13:47:22.547Z,-92
2017-08-23T13:49:48.921Z,-92
2017-08-23T13:52:15.317Z,-92
2017-08-23T13:54:41.701Z,-91
2017-08-23T13:57:08.050Z,-91
2017-08-23T13:59:34.422Z,-92
2017-08-23T14:02:00.814Z,-92
2017-08-23T14:04:27.188Z,-91
2017-08-23T14:06:53.875Z,-91
2017-08-23T14:09:20.263Z,-92
2017-08-23T14:11:46.652Z,-92
2017-08-23T14:14:13.038Z,-92
2017-08-23T14:16:39.424Z,-93
2017-08-23T14:19:05.829Z,-92
2017-08-23T14:21:32.208Z,-92
2017-08-23T14:23:58.605Z,-92
2017-08-23T14:26:25.091Z,-92
2017-08-23T14:28:51.473Z,-92
2017-08-23T14:31:17.865Z,-92
2017-08-23T14:33:44.336Z,-92
2017-08-23T14:36:10.766Z,-92
2017-08-23T14:38:37.154Z,-92
2017-08-23T14:41:03.559Z,-92
2017-08-23T14:43:29.972Z,-93
2017-08-23T14:45:56.386Z,-92
2017-08-23T14:48:22.773Z,-92
2017-08-23T14:50:49.162Z,-92
2017-08-23T14:53:15.555Z,-92
2017-08-23T14:55:41.919Z,-91
2017-08-23T14:58:08.305Z,-93
2017-08-23T15:00:34.710Z,-92
2017-08-23T15:03:01.135Z,-93
2017-08-23T15:05:27.511Z,-92
2017-08-23T15:07:53.901Z,-92
2017-08-23T15:10:20.300Z,-91
2017-08-23T15:12:46.701Z,-92
2017-08-23T15:15:13.100Z,-92
2017-08-23T15:17:39.563Z,-89
2017-08-23T15:20:05.952Z,-89
2017-08-23T15:22:32.347Z,-89
2017-08-23T15:24:58.772Z,-89
2017-08-23T15:27:25.211Z,-88
2017-08-23T15:29:55.879Z,-90
2017-08-23T15:32:22.274Z,-90
2017-08-23T15:34:49.079Z,-90
2017-08-23T15:37:15.490Z,-90
2017-08-23T15:39:41.974Z,-90
2017-08-23T15:42:08.392Z,-91
2017-08-23T15:44:34.890Z,-90
2017-08-23T15:47:01.361Z,-92
2017-08-23T15:49:27.809Z,-92
2017-08-23T15:51:54.856Z,-93
2017-08-23T15:54:21.355Z,-90
2017-08-23T15:56:47.767Z,-90
2017-08-23T15:59:14.287Z,-91
2017-08-23T16:01:40.710Z,-91
2017-08-23T16:04:08.216Z,-90
2017-08-23T16:06:34.767Z,-92
2017-08-23T16:09:01.901Z,-89
2017-08-23T16:11:28.359Z,-91
2017-08-23T16:13:54.769Z,-91
2017-08-23T16:16:21.174Z,-89
2017-08-23T16:18:47.606Z,-92
2017-08-23T16:21:14.014Z,-94
2017-08-23T16:23:40.479Z,-93
2017-08-23T16:26:06.916Z,-92
2017-08-23T16:28:33.332Z,-92
2017-08-23T16:30:59.698Z,-91
2017-08-23T16:33:26.416Z,-91
2017-08-23T16:35:53.021Z,-89
2017-08-23T16:38:19.406Z,-90
2017-08-23T16:40:46.327Z,-90
2017-08-23T16:43:12.759Z,-91
2017-08-23T16:45:39.281Z,-90
2017-08-23T16:48:05.768Z,-90
2017-08-23T16:50:32.445Z,-92
2017-08-23T16:52:59.281Z,-90
2017-08-23T16:55:25.821Z,-91
2017-08-23T16:57:52.213Z,-90
2017-08-23T17:00:18.641Z,-90
2017-08-23T17:02:45.049Z,-88
2017-08-23T17:05:11.447Z,-89
2017-08-23T17:07:37.829Z,-89
2017-08-23T17:10:04.218Z,-90
2017-08-23T17:12:30.637Z,-89
2017-08-23T17:14:57.025Z,-90
2017-08-23T17:17:23.443Z,-92
2017-08-23T17:19:49.892Z,-91
2017-08-23T17:22:16.352Z,-90
2017-08-23T17:24:42.757Z,-91
2017-08-23T17:27:09.134Z,-89
2017-08-23T17:29:36.123Z,-89
2017-08-23T17:32:02.610Z,-89
2017-08-23T17:34:29.002Z,-88
2017-08-23T17:36:55.533Z,-88
2017-08-23T17:39:21.981Z,-89
2017-08-23T17:41:48.419Z,-89
2017-08-23T17:44:14.860Z,-89
2017-08-23T17:46:41.266Z,-89
2017-08-23T17:51:39.566Z,-89
2017-08-23T17:54:05.936Z,-89
2017-08-23T17:56:32.302Z,-89
2017-08-23T17:58:58.661Z,-89
2017-08-23T18:01:25.015Z,-89
2017-08-23T18:03:51.396Z,-89
2017-08-23T18:06:17.781Z,-89
2017-08-23T18:08:44.167Z,-89
2017-08-23T18:11:10.550Z,-89
2017-08-23T18:13:40.698Z,-90
2017-08-23T18:16:07.284Z,-90
2017-08-23T18:18:33.692Z,-90
2017-08-23T18:21:00.383Z,-89
2017-08-23T18:23:26.774Z,-88
2017-08-23T18:25:53.187Z,-88
2017-08-23T18:28:19.539Z,-89
2017-08-23T18:30:45.892Z,-88
2017-08-23T18:33:12.634Z,-88
2017-08-23T18:35:39.041Z,-89
2017-08-23T18:38:05.576Z,-89
2017-08-23T18:40:32.120Z,-91
2017-08-23T18:42:58.589Z,-90
2017-08-23T18:45:25.049Z,-89
2017-08-23T18:47:51.455Z,-89
2017-08-23T18:50:17.860Z,-92
2017-08-23T18:52:44.309Z,-92
2017-08-23T18:55:10.730Z,-91
2017-08-23T18:57:37.126Z,-91
2017-08-23T19:00:03.564Z,-89
2017-08-23T19:02:29.936Z,-89
2017-08-23T19:04:56.400Z,-89
2017-08-23T19:07:22.802Z,-90
2017-08-23T19:09:49.210Z,-92
2017-08-23T19:12:15.737Z,-90
2017-08-23T19:14:42.143Z,-91
2017-08-23T19:17:08.546Z,-89
2017-08-23T19:19:34.956Z,-91
2017-08-23T19:22:01.465Z,-90
2017-08-23T19:24:27.877Z,-90
2017-08-23T19:26:54.372Z,-90
2017-08-23T19:29:20.811Z,-91
2017-08-23T19:31:47.259Z,-91
2017-08-23T19:34:13.712Z,-90
2017-08-23T19:36:40.136Z,-90
2017-08-23T19:39:06.539Z,-90
2017-08-23T19:41:32.937Z,-90
2017-08-23T19:43:59.432Z,-89
2017-08-23T19:46:25.815Z,-90
2017-08-23T19:48:52.211Z,-90
2017-08-23T19:51:18.627Z,-90
2017-08-23T19:53:45.098Z,-90
2017-08-23T19:56:11.515Z,-90
2017-08-23T19:58:37.956Z,-90
2017-08-23T20:01:04.348Z,-91
2017-08-23T20:03:30.901Z,-89
2017-08-23T20:05:57.326Z,-91
2017-08-23T20:08:23.726Z,-90
2017-08-23T20:10:50.123Z,-90
2017-08-23T20:13:16.537Z,-90
2017-08-23T20:15:43.013Z,-90
2017-08-23T20:18:09.417Z,-91
2017-08-23T20:20:35.810Z,-90
2017-08-23T20:23:02.197Z,-89
2017-08-23T20:25:28.624Z,-92
2017-08-23T20:27:55.055Z,-93
2017-08-23T20:30:21.585Z,-92
2017-08-23T20:32:47.971Z,-91
2017-08-23T20:35:14.325Z,-92
2017-08-23T20:37:41.388Z,-93
2017-08-23T20:40:09.325Z,-92
2017-08-23T20:42:37.326Z,-92
2017-08-23T20:45:05.577Z,-92
2017-08-23T20:47:33.637Z,-92
2017-08-23T20:50:01.831Z,-91
2017-08-23T20:52:29.526Z,-92
2017-08-23T20:54:56.667Z,-92
2017-08-23T20:57:23.044Z,-91
2017-08-23T20:59:49.597Z,-91
2017-08-23T21:02:16.065Z,-92
2017-08-23T21:04:42.495Z,-92
2017-08-23T21:07:08.896Z,-91
2017-08-23T21:09:35.305Z,-93
2017-08-23T21:12:01.713Z,-93
2017-08-23T21:14:28.150Z,-92
2017-08-23T21:16:54.527Z,-92
2017-08-23T21:19:21.636Z,-91
2017-08-23T21:21:48.084Z,-91
2017-08-23T21:24:14.489Z,-91
2017-08-23T21:26:40.845Z,-92
2017-08-23T21:29:07.222Z,-90
2017-08-23T21:31:33.586Z,-91
2017-08-23T21:33:59.991Z,-91
2017-08-23T21:36:26.334Z,-91
2017-08-23T21:38:52.771Z,-90
2017-08-23T21:41:19.200Z,-91
2017-08-23T21:43:45.601Z,-91
2017-08-23T21:46:11.999Z,-91
2017-08-23T21:48:38.420Z,-90
2017-08-23T21:51:04.875Z,-90
2017-08-23T21:53:31.264Z,-91
2017-08-23T21:55:57.709Z,-91
2017-08-23T21:58:24.149Z,-91
2017-08-23T22:00:50.603Z,-92
2017-08-23T22:03:16.999Z,-90
2017-08-23T22:05:43.347Z,-90
2017-08-23T22:08:09.768Z,-90
2017-08-23T22:10:36.199Z,-89
2017-08-23T22:13:02.576Z,-90
2017-08-23T22:15:29.092Z,-91
2017-08-23T22:17:55.479Z,-93
2017-08-23T22:20:21.915Z,-93
2017-08-23T22:22:48.302Z,-92
2017-08-23T22:25:14.715Z,-91
2017-08-23T22:27:41.092Z,-90
2017-08-23T22:30:07.510Z,-91
2017-08-23T22:32:33.900Z,-90
2017-08-23T22:35:00.307Z,-90
2017-08-23T22:37:26.864Z,-90
2017-08-23T22:39:53.542Z,-90
2017-08-23T22:42:19.929Z,-92
2017-08-23T22:44:46.341Z,-92
2017-08-23T22:47:12.784Z,-92
2017-08-23T22:49:39.147Z,-92
2017-08-23T22:52:05.578Z,-93
2017-08-23T22:54:31.986Z,-92
2017-08-23T22:56:58.396Z,-92
2017-08-23T22:59:24.789Z,-89
2017-08-23T23:01:51.289Z,-91
2017-08-23T23:04:17.749Z,-92
2017-08-23T23:06:44.159Z,-91
2017-08-23T23:09:10.561Z,-92
2017-08-23T23:11:36.950Z,-91
2017-08-23T23:14:03.323Z,-91
2017-08-23T23:16:29.726Z,-90
2017-08-23T23:18:56.112Z,-91
2017-08-23T23:21:22.678Z,-93
2017-08-23T23:23:49.077Z,-91
2017-08-23T23:26:15.453Z,-92
2017-08-23T23:28:41.864Z,-92
2017-08-23T23:31:08.263Z,-91
2017-08-23T23:33:34.693Z,-91
2017-08-23T23:36:01.103Z,-91
2017-08-23T23:38:27.599Z,-92
2017-08-23T23:40:53.999Z,-92
2017-08-23T23:43:20.394Z,-91
2017-08-23T23:45:46.797Z,-91
2017-08-23T23:48:13.159Z,-91
2017-08-23T23:50:39.590Z,-91
2017-08-23T23:53:05.982Z,-90
2017-08-23T23:55:32.340Z,-90
2017-08-23T23:57:58.717Z,-91
